Time;durP1;ratioP1;P1;durP2;ratioP2;P2;SDS_P1;SDS_P2;PMS_P1;PMS_P2;Temp;Humidity;BMP_temperature;BMP_pressure;BME280_temperature;BME280_humidity;BME280_pressure;Samples;Min_cycle;Max_cycle;Signal;HPM_P1;HPM_P2
2022/03/31 00:00:18;;;;;;;10.40;6.10;;;8.90;56.30;;;;;;5034619;28;20415;-56
2022/03/31 00:02:45;;;;;;;9.77;5.47;;;8.90;36.30;;;;;;5034380;28;20466;-54
2022/03/31 00:05:14;;;;;;;9.30;5.20;;;8.90;31.50;;;;;;5035031;28;20886;-50
2022/03/31 00:07:55;;;;;;;9.13;6.15;;;8.80;32.50;;;;;;5034441;28;20437;-53
2022/03/31 00:10:23;;;;;;;9.13;5.43;;;8.80;32.80;;;;;;5035008;28;20510;-50
2022/03/31 00:12:51;;;;;;;10.07;6.47;;;8.80;47.60;;;;;;5033684;28;20461;-52
2022/03/31 00:15:18;;;;;;;7.85;5.78;;;8.80;37.70;;;;;;5032917;28;20426;-55
2022/03/31 00:17:45;;;;;;;10.48;5.35;;;8.80;36.90;;;;;;5032616;28;20467;-51
2022/03/31 00:20:14;;;;;;;8.85;5.22;;;8.80;30.80;;;;;;5033072;28;20505;-56
2022/03/31 00:22:41;;;;;;;7.50;5.10;;;8.80;49.60;;;;;;5032978;28;20470;-51
2022/03/31 00:25:10;;;;;;;9.40;5.63;;;8.80;41.20;;;;;;5032636;28;20427;-52
2022/03/31 00:27:38;;;;;;;9.60;5.72;;;8.80;28.20;;;;;;5033676;28;20445;-55
2022/03/31 00:30:07;;;;;;;7.55;4.22;;;9.00;37.10;;;;;;5033887;28;20493;-56
2022/03/31 00:32:35;;;;;;;7.68;4.35;;;9.20;7.70;;;;;;5032644;28;20533;-52
2022/03/31 00:35:04;;;;;;;7.18;4.70;;;9.30;1.00;;;;;;5034183;28;20419;-55
2022/03/31 00:37:33;;;;;;;8.35;5.13;;;9.10;1.00;;;;;;5032799;28;20517;-53
2022/03/31 00:40:00;;;;;;;7.53;4.47;;;9.20;1.00;;;;;;5033259;28;20537;-52
2022/03/31 00:42:27;;;;;;;8.88;4.78;;;9.20;1.00;;;;;;5032623;28;20537;-52
2022/03/31 00:44:54;;;;;;;8.10;4.47;;;9.10;1.00;;;;;;5031418;28;20878;-55
2022/03/31 00:47:21;;;;;;;7.88;4.80;;;9.20;1.00;;;;;;5030714;28;20431;-51
2022/03/31 00:49:48;;;;;;;6.60;3.80;;;9.20;1.00;;;;;;5030800;28;20441;-53
2022/03/31 00:52:15;;;;;;;6.78;4.35;;;9.20;1.00;;;;;;5031286;28;20446;-54
2022/03/31 00:54:44;;;;;;;6.30;3.90;;;9.20;1.00;;;;;;5031408;28;20818;-53
2022/03/31 00:57:12;;;;;;;5.72;3.60;;;9.20;1.00;;;;;;5031124;28;20456;-57
2022/03/31 00:59:39;;;;;;;4.78;3.40;;;9.20;1.00;;;;;;5031978;28;20815;-54
2022/03/31 01:02:08;;;;;;;6.78;4.40;;;9.20;1.00;;;;;;5031956;28;20431;-53
2022/03/31 01:04:35;;;;;;;4.55;3.55;;;9.10;1.00;;;;;;5031995;28;20477;-54
2022/03/31 01:07:03;;;;;;;6.97;3.17;;;9.10;1.00;;;;;;5031453;28;20930;-55
2022/03/31 01:09:32;;;;;;;6.07;3.35;;;9.10;1.00;;;;;;5032493;28;20496;-54
2022/03/31 01:12:02;;;;;;;5.20;2.72;;;9.00;1.00;;;;;;5032308;28;20423;-52
2022/03/31 01:14:31;;;;;;;6.13;3.42;;;9.10;1.00;;;;;;5033923;28;20731;-56
2022/03/31 01:16:58;;;;;;;6.10;3.25;;;9.20;1.00;;;;;;5033947;28;20889;-56
2022/03/31 01:19:25;;;;;;;6.10;3.13;;;9.30;1.00;;;;;;5034607;28;20497;-55
2022/03/31 01:21:52;;;;;;;6.05;3.63;;;9.00;1.00;;;;;;5033587;28;20874;-56
2022/03/31 01:24:20;;;;;;;4.90;3.90;;;8.80;1.00;;;;;;5034522;28;20510;-54
2022/03/31 01:26:47;;;;;;;5.15;3.22;;;8.60;1.00;;;;;;5034121;28;20480;-52
2022/03/31 01:29:14;;;;;;;3.20;2.70;;;8.70;1.00;;;;;;5037747;28;21510;-54
2022/03/31 01:31:41;;;;;;;6.28;3.53;;;8.70;1.00;;;;;;5037322;28;20485;-56
2022/03/31 01:34:09;;;;;;;5.10;2.90;;;8.80;1.00;;;;;;5038036;28;20516;-53
2022/03/31 01:36:35;;;;;;;6.55;3.70;;;9.00;1.00;;;;;;5037748;28;20846;-54
2022/03/31 01:39:03;;;;;;;5.60;3.60;;;8.90;1.00;;;;;;5037448;28;20449;-50
2022/03/31 01:41:31;;;;;;;6.25;3.55;;;8.90;1.00;;;;;;5038100;28;20515;-56
2022/03/31 01:43:58;;;;;;;5.40;3.63;;;8.70;1.00;;;;;;5037450;28;20458;-54
2022/03/31 01:46:25;;;;;;;5.40;3.17;;;8.60;1.00;;;;;;5037627;28;20462;-56
2022/03/31 01:48:53;;;;;;;4.93;3.65;;;8.60;1.00;;;;;;5036803;28;20473;-51
2022/03/31 01:51:20;;;;;;;7.22;3.45;;;8.60;1.00;;;;;;5037497;28;20431;-54
2022/03/31 01:53:47;;;;;;;6.40;3.13;;;8.60;1.00;;;;;;5036627;28;20881;-55
2022/03/31 01:56:14;;;;;;;4.97;3.17;;;8.70;1.00;;;;;;5036926;28;20441;-56
2022/03/31 01:58:43;;;;;;;4.90;2.80;;;8.60;1.00;;;;;;5036241;28;20788;-55
2022/03/31 02:01:10;;;;;;;5.25;3.85;;;8.60;1.00;;;;;;5036145;28;20501;-52
2022/03/31 02:03:36;;;;;;;6.22;4.40;;;8.60;1.00;;;;;;5035556;28;20431;-52
2022/03/31 02:06:03;;;;;;;5.28;3.22;;;8.70;1.00;;;;;;5036116;28;20501;-54
2022/03/31 02:08:30;;;;;;;6.20;3.50;;;8.60;1.00;;;;;;5035906;28;20434;-54
2022/03/31 02:10:57;;;;;;;6.43;3.10;;;8.60;1.00;;;;;;5036349;28;20494;-55
2022/03/31 02:13:25;;;;;;;5.70;3.10;;;8.60;1.00;;;;;;5036151;28;20431;-54
2022/03/31 02:15:54;;;;;;;4.72;3.10;;;8.50;1.00;;;;;;5036760;28;20792;-52
2022/03/31 02:18:21;;;;;;;5.77;3.60;;;8.40;1.00;;;;;;5035938;28;20534;-55
2022/03/31 02:20:48;;;;;;;4.73;3.20;;;8.40;1.00;;;;;;5037236;28;20459;-55
2022/03/31 02:23:15;;;;;;;6.40;3.55;;;8.40;1.00;;;;;;5036579;28;20484;-54
2022/03/31 02:25:43;;;;;;;5.53;3.38;;;8.50;1.00;;;;;;5036920;28;20423;-52
2022/03/31 02:28:10;;;;;;;5.95;3.60;;;8.60;1.00;;;;;;5036552;28;20430;-55
2022/03/31 02:30:38;;;;;;;4.82;2.90;;;8.70;1.00;;;;;;5036874;28;20419;-54
2022/03/31 02:33:07;;;;;;;6.07;3.90;;;8.80;1.00;;;;;;5036043;28;20431;-54
2022/03/31 02:35:34;;;;;;;5.85;3.35;;;8.90;1.00;;;;;;5036704;28;20429;-52
2022/03/31 02:38:01;;;;;;;6.10;3.70;;;9.00;1.00;;;;;;5034531;28;20437;-52
2022/03/31 02:40:28;;;;;;;7.50;4.03;;;9.10;1.00;;;;;;5035388;28;20525;-55
2022/03/31 02:42:55;;;;;;;5.13;3.20;;;9.00;1.00;;;;;;5034942;28;20513;-54
2022/03/31 02:45:22;;;;;;;5.78;3.83;;;8.80;1.00;;;;;;5034835;28;20772;-52
2022/03/31 02:47:49;;;;;;;5.60;3.80;;;8.60;1.00;;;;;;5034306;28;20844;-53
2022/03/31 02:50:18;;;;;;;6.25;3.53;;;8.70;1.00;;;;;;5035415;28;20458;-55
2022/03/31 02:55:31;;;;;;;6.22;3.83;;;8.70;1.00;;;;;;5035743;28;20498;-51
2022/03/31 02:58:01;;;;;;;6.13;3.80;;;8.80;1.00;;;;;;5035790;28;20925;-54
2022/03/31 03:00:30;;;;;;;6.47;3.72;;;8.70;1.00;;;;;;5036034;28;20438;-56
2022/03/31 03:02:58;;;;;;;7.10;4.22;;;8.70;1.00;;;;;;5035585;28;20431;-55
2022/03/31 03:05:26;;;;;;;8.50;5.22;;;8.60;1.00;;;;;;5036312;28;20423;-54
2022/03/31 03:07:53;;;;;;;5.75;3.70;;;8.50;1.00;;;;;;5035686;28;20461;-54
2022/03/31 03:10:20;;;;;;;7.60;5.20;;;8.20;1.00;;;;;;5035940;28;20840;-55
2022/03/31 03:12:48;;;;;;;7.22;4.50;;;8.10;1.00;;;;;;5035500;28;20529;-55
2022/03/31 03:15:15;;;;;;;5.70;3.83;;;8.00;1.00;;;;;;5035796;28;20507;-50
2022/03/31 03:17:43;;;;;;;6.68;4.45;;;8.10;9.30;;;;;;5035509;28;20470;-50
2022/03/31 03:20:13;;;;;;;5.97;4.10;;;8.20;6.50;;;;;;5034929;28;20750;-54
2022/03/31 03:22:43;;;;;;;8.57;5.10;;;8.30;1.00;;;;;;5035826;28;20430;-50
2022/03/31 03:25:11;;;;;;;7.72;5.20;;;8.30;1.00;;;;;;5035772;28;20838;-58
2022/03/31 03:27:38;;;;;;;6.95;4.68;;;8.40;1.00;;;;;;5035455;28;20441;-55
2022/03/31 03:30:06;;;;;;;7.70;5.50;;;8.30;1.00;;;;;;5035633;28;20697;-51
2022/03/31 03:32:34;;;;;;;7.75;4.90;;;8.10;1.00;;;;;;5035433;28;20863;-51
2022/03/31 03:35:00;;;;;;;9.65;5.45;;;7.90;1.00;;;;;;5035769;28;20781;-52
2022/03/31 03:37:27;;;;;;;6.57;4.32;;;7.80;1.00;;;;;;5035721;28;20488;-50
2022/03/31 03:39:56;;;;;;;8.00;6.00;;;7.70;9.50;;;;;;5035756;28;20466;-50
2022/03/31 03:42:22;;;;;;;7.82;5.05;;;7.60;15.80;;;;;;5035225;28;20937;-53
2022/03/31 03:44:49;;;;;;;7.30;5.03;;;7.70;22.00;;;;;;5035271;28;20514;-53
2022/03/31 03:47:16;;;;;;;7.55;5.75;;;7.80;7.50;;;;;;5035454;28;20430;-52
2022/03/31 03:49:43;;;;;;;8.23;5.43;;;7.60;16.90;;;;;;5035167;28;20419;-50
2022/03/31 03:52:10;;;;;;;8.93;5.22;;;7.70;33.60;;;;;;5035244;28;20529;-54
2022/03/31 03:54:37;;;;;;;7.93;5.18;;;7.70;27.70;;;;;;5035316;28;20429;-55
2022/03/31 03:57:06;;;;;;;8.15;5.68;;;7.80;17.00;;;;;;5035177;28;20442;-53
2022/03/31 03:59:33;;;;;;;5.55;4.00;;;7.80;10.50;;;;;;5035170;28;20538;-52
2022/03/31 04:02:00;;;;;;;8.32;5.40;;;7.90;1.00;;;;;;5034716;28;20431;-50
2022/03/31 04:04:29;;;;;;;9.10;5.50;;;7.70;1.00;;;;;;5034867;28;20438;-54
2022/03/31 04:06:56;;;;;;;8.55;6.35;;;7.50;12.90;;;;;;5035015;28;20526;-51
2022/03/31 04:09:23;;;;;;;6.20;4.43;;;7.20;37.70;;;;;;5034573;28;20498;-53
2022/03/31 04:11:50;;;;;;;9.80;6.82;;;7.10;53.10;;;;;;5034751;28;20510;-54
2022/03/31 04:14:18;;;;;;;7.28;4.90;;;7.10;85.00;;;;;;5035232;28;20434;-54
2022/03/31 04:16:45;;;;;;;6.45;4.65;;;7.40;62.00;;;;;;5035104;28;20469;-53
2022/03/31 04:19:12;;;;;;;9.57;6.22;;;7.50;51.00;;;;;;5034676;28;20584;-51
2022/03/31 04:21:40;;;;;;;8.10;5.10;;;7.60;3.00;;;;;;5033951;28;20521;-51
2022/03/31 04:24:07;;;;;;;8.00;5.30;;;7.40;13.90;;;;;;5033235;28;20910;-55
2022/03/31 04:26:34;;;;;;;8.07;5.13;;;7.30;28.00;;;;;;5033232;28;20510;-52
2022/03/31 04:29:01;;;;;;;8.55;6.10;;;7.30;72.20;;;;;;5033008;28;20812;-54
2022/03/31 04:31:30;;;;;;;6.20;5.07;;;7.20;56.90;;;;;;5033198;28;20427;-54
2022/03/31 04:33:57;;;;;;;10.00;5.75;;;7.40;65.20;;;;;;5032975;28;20501;-54
2022/03/31 04:36:24;;;;;;;8.70;5.78;;;7.40;41.40;;;;;;5033512;28;20429;-49
2022/03/31 04:38:51;;;;;;;7.18;4.93;;;7.40;57.20;;;;;;5033903;28;20431;-50
2022/03/31 04:41:17;;;;;;;7.22;4.95;;;7.50;48.20;;;;;;5034238;28;20435;-52
2022/03/31 04:43:44;;;;;;;7.03;5.18;;;7.70;23.70;;;;;;5034528;28;20889;-51
2022/03/31 04:46:11;;;;;;;8.30;5.30;;;7.70;1.00;;;;;;5034579;28;20869;-54
2022/03/31 04:48:40;;;;;;;10.40;5.68;;;7.70;10.90;;;;;;5034384;28;20466;-51
2022/03/31 04:51:07;;;;;;;8.37;5.23;;;7.70;10.70;;;;;;5033351;28;20426;-48
2022/03/31 04:53:34;;;;;;;7.20;5.33;;;7.50;1.00;;;;;;5033303;28;20521;-52
2022/03/31 04:56:01;;;;;;;7.57;5.43;;;7.50;17.40;;;;;;5034230;28;20426;-48
2022/03/31 04:58:28;;;;;;;7.40;5.03;;;7.30;10.70;;;;;;5034428;28;20530;-47
2022/03/31 05:00:55;;;;;;;7.28;4.85;;;7.30;35.10;;;;;;5033936;28;20431;-49
2022/03/31 05:03:22;;;;;;;7.17;4.50;;;7.30;49.60;;;;;;5049768;28;20437;-48
2022/03/31 05:05:50;;;;;;;7.67;6.17;;;7.20;38.50;;;;;;5057807;28;20425;-52
2022/03/31 05:08:17;;;;;;;7.53;4.90;;;7.20;61.90;;;;;;5053323;28;20494;-53
2022/03/31 05:10:46;;;;;;;8.45;5.97;;;7.10;28.30;;;;;;5056905;28;20466;-51
2022/03/31 05:13:27;;;;;;;7.63;4.90;;;6.90;49.10;;;;;;5054806;28;20429;-52
2022/03/31 05:15:54;;;;;;;8.75;5.07;;;6.90;86.60;;;;;;5055681;28;20416;-51
2022/03/31 05:18:21;;;;;;;6.20;5.25;;;7.10;91.20;;;;;;5056450;28;20812;-51
2022/03/31 05:20:49;;;;;;;6.68;4.82;;;7.30;56.00;;;;;;5055476;28;20736;-50
2022/03/31 05:23:16;;;;;;;7.23;4.93;;;7.30;36.40;;;;;;5056866;28;20465;-48
2022/03/31 05:25:44;;;;;;;7.75;5.20;;;7.20;19.80;;;;;;5056439;28;20573;-51
2022/03/31 05:28:11;;;;;;;7.40;5.28;;;7.10;26.80;;;;;;5056261;28;20592;-51
2022/03/31 05:30:39;;;;;;;6.35;4.75;;;7.10;30.00;;;;;;5056978;28;20413;-52
2022/03/31 05:33:08;;;;;;;6.80;3.90;;;7.10;18.20;;;;;;5056468;28;20899;-53
2022/03/31 05:35:35;;;;;;;6.63;5.00;;;7.10;28.50;;;;;;5056655;28;20418;-52
2022/03/31 05:38:03;;;;;;;5.20;3.60;;;7.10;17.30;;;;;;5056264;28;20528;-52
2022/03/31 05:40:30;;;;;;;6.93;4.53;;;7.00;42.90;;;;;;5054597;28;20940;-50
2022/03/31 05:42:57;;;;;;;6.60;4.03;;;7.20;30.00;;;;;;5054735;28;20527;-53
2022/03/31 05:45:25;;;;;;;8.67;4.60;;;7.30;25.50;;;;;;5055666;28;20457;-48
2022/03/31 05:47:53;;;;;;;7.82;5.38;;;7.30;3.30;;;;;;5053427;28;20516;-52
2022/03/31 05:50:20;;;;;;;7.88;4.40;;;7.20;18.60;;;;;;5052809;28;20517;-55
2022/03/31 05:52:47;;;;;;;7.85;4.72;;;7.30;5.50;;;;;;5053925;28;20440;-50
2022/03/31 05:55:17;;;;;;;6.13;4.40;;;7.40;1.80;;;;;;5052486;28;20428;-53
2022/03/31 05:57:44;;;;;;;6.22;4.22;;;7.50;1.00;;;;;;5051590;28;20891;-52
2022/03/31 06:00:14;;;;;;;6.93;4.38;;;7.60;1.00;;;;;;5053357;28;20433;-54
2022/03/31 06:02:41;;;;;;;7.63;5.00;;;7.70;1.00;;;;;;5052778;28;20806;-51
2022/03/31 06:05:10;;;;;;;8.27;5.22;;;7.50;1.00;;;;;;5054379;28;20501;-51
2022/03/31 06:07:37;;;;;;;6.38;4.72;;;7.40;1.00;;;;;;5051474;28;20441;-54
2022/03/31 06:10:05;;;;;;;8.07;5.65;;;7.40;4.60;;;;;;5054183;28;20884;-53
2022/03/31 06:12:34;;;;;;;6.28;4.70;;;7.60;1.00;;;;;;5053952;28;20519;-54
2022/03/31 06:15:01;;;;;;;6.15;4.20;;;7.70;1.00;;;;;;5051975;28;20555;-50
2022/03/31 06:17:28;;;;;;;6.40;4.28;;;8.00;1.00;;;;;;5055015;28;20556;-53
2022/03/31 06:19:55;;;;;;;6.97;4.40;;;8.10;1.00;;;;;;5053715;28;20456;-53
2022/03/31 06:22:22;;;;;;;6.07;4.40;;;8.00;1.00;;;;;;5054989;28;20429;-52
2022/03/31 06:24:49;;;;;;;7.03;4.30;;;8.00;1.00;;;;;;5055442;28;20437;-51
2022/03/31 06:27:16;;;;;;;7.18;4.68;;;8.20;1.00;;;;;;5054435;28;20512;-53
2022/03/31 06:29:45;;;;;;;6.47;4.85;;;8.40;1.00;;;;;;5054329;28;20425;-51
2022/03/31 06:32:13;;;;;;;7.95;4.75;;;8.20;1.00;;;;;;5054386;28;20429;-53
2022/03/31 06:34:40;;;;;;;7.47;4.70;;;7.90;1.00;;;;;;5054936;28;20448;-52
2022/03/31 06:37:07;;;;;;;6.03;4.90;;;8.00;1.00;;;;;;5054110;28;20516;-52
2022/03/31 06:39:34;;;;;;;6.47;4.90;;;8.10;1.00;;;;;;5054148;28;20507;-52
2022/03/31 06:42:01;;;;;;;9.05;4.93;;;7.60;1.00;;;;;;5054277;28;20433;-54
2022/03/31 06:44:28;;;;;;;11.40;5.93;;;7.30;1.00;;;;;;5055452;28;20460;-47
2022/03/31 06:46:56;;;;;;;7.25;4.95;;;7.30;1.00;;;;;;5055081;28;20461;-54
2022/03/31 06:49:24;;;;;;;8.35;5.55;;;7.30;1.00;;;;;;5055467;28;20467;-48
2022/03/31 06:51:51;;;;;;;8.15;5.45;;;7.30;8.00;;;;;;5051938;28;20425;-52
2022/03/31 06:54:19;;;;;;;7.77;5.10;;;7.40;1.00;;;;;;5054277;28;20541;-53
2022/03/31 06:56:48;;;;;;;9.32;5.60;;;7.30;1.00;;;;;;5053166;28;20428;-52
2022/03/31 06:59:15;;;;;;;7.85;4.55;;;7.30;1.00;;;;;;5054175;28;20432;-52
2022/03/31 07:01:42;;;;;;;7.22;4.90;;;7.10;3.30;;;;;;5053368;28;20485;-53
2022/03/31 07:04:11;;;;;;;8.30;6.10;;;7.00;18.70;;;;;;5054609;28;20524;-50
2022/03/31 07:06:38;;;;;;;7.93;5.10;;;7.10;24.90;;;;;;5053912;28;20483;-53
2022/03/31 07:09:04;;;;;;;8.98;5.68;;;7.20;28.00;;;;;;5053912;28;20429;-52
2022/03/31 07:11:31;;;;;;;8.63;4.72;;;7.40;26.30;;;;;;5054784;28;20527;-50
2022/03/31 07:14:01;;;;;;;8.85;5.22;;;7.40;1.00;;;;;;5054376;28;20476;-52
2022/03/31 07:16:28;;;;;;;7.05;4.80;;;7.60;1.00;;;;;;5033793;28;20433;-55
2022/03/31 07:18:55;;;;;;;9.60;6.10;;;7.90;1.00;;;;;;5044683;28;20840;-50
2022/03/31 07:21:24;;;;;;;7.47;4.43;;;8.00;1.00;;;;;;5051669;28;20519;-53
2022/03/31 07:23:51;;;;;;;8.53;6.10;;;7.90;1.00;;;;;;5051667;28;20459;-55
2022/03/31 07:26:18;;;;;;;9.90;6.50;;;7.60;1.00;;;;;;5051026;28;20516;-53
2022/03/31 07:28:45;;;;;;;9.10;5.28;;;7.30;1.00;;;;;;5053042;28;20437;-49
2022/03/31 07:31:12;;;;;;;9.35;6.45;;;7.10;21.20;;;;;;5053092;28;20819;-50
2022/03/31 07:33:39;;;;;;;14.73;8.13;;;7.30;19.90;;;;;;5053933;28;20822;-48
2022/03/31 07:36:07;;;;;;;8.70;6.20;;;7.60;1.00;;;;;;5053200;28;20421;-53
2022/03/31 07:38:35;;;;;;;10.18;6.57;;;7.50;1.00;;;;;;5053145;28;20437;-51
2022/03/31 07:41:03;;;;;;;9.73;6.38;;;7.50;1.00;;;;;;5052651;28;20491;-50
2022/03/31 07:43:30;;;;;;;10.68;6.47;;;7.40;1.00;;;;;;5051545;28;20437;-52
2022/03/31 07:45:57;;;;;;;8.95;4.95;;;7.50;1.00;;;;;;5053069;28;20521;-50
2022/03/31 07:48:24;;;;;;;9.65;5.72;;;7.60;3.60;;;;;;5053689;28;20452;-53
2022/03/31 07:50:51;;;;;;;8.45;4.85;;;7.90;1.00;;;;;;5052588;28;20511;-52
2022/03/31 07:53:20;;;;;;;7.68;5.25;;;8.20;1.00;;;;;;5052535;28;20837;-51
2022/03/31 07:55:48;;;;;;;7.05;4.20;;;8.40;1.00;;;;;;5052266;28;20437;-54
2022/03/31 07:58:15;;;;;;;9.90;5.97;;;8.60;1.00;;;;;;5051993;28;20468;-52
2022/03/31 08:00:42;;;;;;;11.07;6.40;;;8.70;1.00;;;;;;5052924;28;20469;-51
2022/03/31 08:03:09;;;;;;;9.23;6.13;;;8.70;1.00;;;;;;5040862;28;20516;-51
2022/03/31 08:05:38;;;;;;;7.90;5.30;;;8.80;1.00;;;;;;5053370;28;20421;-51
2022/03/31 08:08:05;;;;;;;9.30;5.60;;;9.10;1.00;;;;;;5052881;28;20445;-51
2022/03/31 08:10:32;;;;;;;7.70;4.68;;;8.70;1.00;;;;;;5053528;28;20424;-54
2022/03/31 08:13:01;;;;;;;5.25;4.00;;;8.70;1.00;;;;;;5052513;28;20439;-54
2022/03/31 08:15:27;;;;;;;10.10;5.15;;;8.90;1.00;;;;;;5053198;28;20468;-55
2022/03/31 08:17:54;;;;;;;10.07;5.55;;;8.90;1.00;;;;;;5054026;28;20441;-52
2022/03/31 08:20:21;;;;;;;7.93;4.88;;;9.10;99.90;;;;;;5052990;28;21213;-51
2022/03/31 08:22:49;;;;;;;7.95;5.20;;;8.80;1.00;;;;;;5052969;28;20919;-53
2022/03/31 08:25:17;;;;;;;9.38;5.72;;;8.80;1.00;;;;;;5052700;28;20450;-54
2022/03/31 08:27:45;;;;;;;9.23;5.50;;;8.80;1.00;;;;;;5053623;28;20440;-50
2022/03/31 08:30:18;;;;;;;6.70;4.60;;;8.90;1.00;;;;;;5052775;28;20764;-49
2022/03/31 08:32:46;;;;;;;7.18;4.60;;;9.10;1.00;;;;;;5051896;28;20437;-53
2022/03/31 08:35:16;;;;;;;14.07;5.30;;;9.40;1.00;;;;;;5053331;28;20410;-54
2022/03/31 08:37:43;;;;;;;8.07;5.50;;;9.30;99.90;;;;;;5053977;28;20530;-56
2022/03/31 08:40:12;;;;;;;9.50;6.80;;;9.20;99.90;;;;;;5058177;28;20890;-54
2022/03/31 08:42:39;;;;;;;7.37;4.53;;;8.70;1.00;;;;;;5056303;28;20443;-54
2022/03/31 08:45:11;;;;;;;8.38;5.65;;;8.50;1.00;;;;;;5056417;28;20500;-56
2022/03/31 08:47:41;;;;;;;11.40;7.72;;;8.90;1.00;;;;;;5051739;28;20439;-54
2022/03/31 08:50:10;;;;;;;9.98;7.25;;;8.90;1.00;;;;;;5053472;28;20515;-53
2022/03/31 08:52:37;;;;;;;8.68;6.50;;;9.00;1.00;;;;;;5055975;28;20424;-52
2022/03/31 08:55:05;;;;;;;10.00;6.33;;;9.40;1.00;;;;;;5054876;28;20433;-53
2022/03/31 08:57:43;;;;;;;8.40;5.93;;;9.60;99.90;;;;;;5055681;28;20427;-51
2022/03/31 09:00:12;;;;;;;7.57;5.20;;;9.60;1.00;;;;;;5054893;28;20459;-52
2022/03/31 09:02:41;;;;;;;8.18;5.50;;;9.60;99.90;;;;;;5054937;28;20553;-52
2022/03/31 09:05:10;;;;;;;9.43;5.78;;;9.70;1.00;;;;;;5054847;28;20495;-51
2022/03/31 09:07:51;;;;;;;7.78;5.60;;;9.70;1.00;;;;;;5055786;28;20639;-52
2022/03/31 09:10:29;;;;;;;7.45;5.88;;;9.90;1.00;;;;;;5056171;28;20448;-53
2022/03/31 09:12:56;;;;;;;13.98;8.90;;;10.00;12.90;;;;;;5056108;28;20499;-54
2022/03/31 09:15:23;;;;;;;10.45;6.55;;;10.40;99.90;;;;;;5055719;28;20518;-53
2022/03/31 09:17:56;;;;;;;10.43;5.78;;;10.50;1.00;;;;;;5056122;28;20431;-53
2022/03/31 09:20:23;;;;;;;10.60;7.07;;;10.30;99.90;;;;;;5055517;28;20429;-52
2022/03/31 09:22:51;;;;;;;8.00;5.90;;;9.80;99.90;;;;;;5055114;28;20483;-50
2022/03/31 09:25:25;;;;;;;8.68;5.32;;;9.90;1.00;;;;;;5054417;28;20441;-54
2022/03/31 09:27:53;;;;;;;8.63;5.70;;;10.10;1.00;;;;;;5055599;28;20468;-52
2022/03/31 09:30:20;;;;;;;10.55;7.30;;;10.40;99.90;;;;;;5055179;28;20437;-54
2022/03/31 09:32:48;;;;;;;10.77;6.80;;;10.40;1.00;;;;;;5056748;28;20508;-52
2022/03/31 09:35:20;;;;;;;10.48;6.72;;;10.20;1.00;;;;;;5054282;28;20456;-54
2022/03/31 09:37:49;;;;;;;8.70;5.50;;;10.30;1.00;;;;;;5052045;28;20552;-54
2022/03/31 09:40:16;;;;;;;8.77;5.50;;;10.40;99.90;;;;;;5053951;28;20494;-54
2022/03/31 09:42:43;;;;;;;9.85;6.30;;;10.80;1.00;;;;;;5052929;28;20559;-55
2022/03/31 09:45:10;;;;;;;9.10;6.40;;;10.90;99.90;;;;;;5052761;28;20512;-55
2022/03/31 09:47:44;;;;;;;10.23;5.80;;;11.00;13.40;;;;;;5049412;28;20515;-54
2022/03/31 09:50:12;;;;;;;6.85;5.00;;;10.90;99.90;;;;;;5051273;28;20744;-55
2022/03/31 09:52:42;;;;;;;8.70;6.88;;;11.20;1.00;;;;;;5055475;28;20431;-55
2022/03/31 09:55:11;;;;;;;8.95;7.15;;;11.30;99.90;;;;;;5054426;28;20520;-51
2022/03/31 09:57:39;;;;;;;12.32;9.75;;;11.20;99.90;;;;;;5054774;28;20525;-55
2022/03/31 10:00:08;;;;;;;12.88;8.88;;;11.10;1.00;;;;;;5048176;28;21038;-52
2022/03/31 10:02:36;;;;;;;10.63;7.25;;;11.40;99.90;;;;;;5053528;28;20435;-55
2022/03/31 10:05:04;;;;;;;10.10;6.70;;;11.30;99.90;;;;;;5053532;28;20524;-52
2022/03/31 10:07:31;;;;;;;12.35;7.93;;;11.00;1.00;;;;;;5055068;28;20429;-50
2022/03/31 10:10:00;;;;;;;11.52;7.78;;;10.90;1.00;;;;;;5050480;28;20860;-53
2022/03/31 10:12:33;;;;;;;12.75;8.20;;;10.70;99.90;;;;;;5053986;28;20514;-55
2022/03/31 10:15:03;;;;;;;11.47;8.00;;;10.70;99.90;;;;;;5054265;28;20609;-55
2022/03/31 10:17:32;;;;;;;10.30;6.75;;;11.00;1.00;;;;;;5054378;28;20520;-55
2022/03/31 10:20:07;;;;;;;11.00;7.88;;;11.30;1.00;;;;;;5053161;28;20628;-52
2022/03/31 10:25:20;;;;;;;8.73;6.57;;;10.80;99.90;;;;;;5053366;28;20428;-51
2022/03/31 10:27:49;;;;;;;13.60;9.10;;;11.00;99.90;;;;;;5053034;28;20417;-52
2022/03/31 10:30:18;;;;;;;11.80;6.63;;;11.10;99.90;;;;;;5052569;28;20444;-53
2022/03/31 10:32:54;;;;;;;11.93;7.30;;;11.50;1.00;;;;;;5052613;28;20464;-57
2022/03/31 10:35:23;;;;;;;10.70;7.07;;;11.80;99.90;;;;;;5048965;28;20885;-57
2022/03/31 10:37:50;;;;;;;9.55;6.10;;;11.90;1.00;;;;;;5054155;28;20522;-56
2022/03/31 10:40:31;;;;;;;10.65;7.90;;;12.10;1.00;;;;;;5053329;28;20662;-57
2022/03/31 10:42:58;;;;;;;10.88;7.32;;;12.20;1.00;;;;;;5054542;28;20987;-58
2022/03/31 10:45:35;;;;;;;9.95;6.90;;;12.00;1.00;;;;;;5053611;28;20461;-58
2022/03/31 10:48:14;;;;;;;10.30;7.35;;;12.00;1.00;;;;;;5054065;28;20456;-55
2022/03/31 10:50:41;;;;;;;10.77;7.07;;;12.10;1.00;;;;;;5052328;28;20507;-55
2022/03/31 10:53:08;;;;;;;10.88;8.00;;;12.40;1.00;;;;;;5053299;28;20778;-55
2022/03/31 10:55:38;;;;;;;12.17;8.57;;;12.30;1.00;;;;;;5052724;28;20520;-55
2022/03/31 10:58:06;;;;;;;11.02;7.85;;;11.80;1.00;;;;;;5053052;28;20559;-55
2022/03/31 11:00:34;;;;;;;10.93;7.70;;;11.50;99.90;;;;;;5053721;28;20529;-56
2022/03/31 11:03:01;;;;;;;9.20;6.80;;;11.40;1.00;;;;;;5051490;28;20907;-57
2022/03/31 11:05:29;;;;;;;10.90;7.95;;;11.70;1.00;;;;;;5052493;28;20440;-53
2022/03/31 11:08:03;;;;;;;11.60;6.63;;;11.90;99.90;;;;;;5051740;28;20424;-56
2022/03/31 11:10:40;;;;;;;10.02;7.47;;;12.20;17.30;;;;;;5052069;28;20516;-55
2022/03/31 11:13:10;;;;;;;9.15;7.00;;;12.20;1.00;;;;;;5050359;28;20432;-53
2022/03/31 11:15:37;;;;;;;28.35;22.02;;;12.30;1.00;;;;;;5052268;28;20437;-63
2022/03/31 11:18:04;;;;;;;12.70;8.65;;;12.10;1.00;;;;;;5052989;28;20870;-63
2022/03/31 11:20:32;;;;;;;9.23;7.53;;;12.00;1.00;;;;;;5052442;28;20527;-65
2022/03/31 11:23:06;;;;;;;10.00;7.20;;;11.70;99.90;;;;;;5051896;28;21082;-64
2022/03/31 11:25:34;;;;;;;9.45;6.70;;;11.80;99.90;;;;;;5050680;28;21010;-54
2022/03/31 11:28:10;;;;;;;12.80;8.25;;;11.90;99.90;;;;;;5051090;28;20515;-54
2022/03/31 11:30:38;;;;;;;9.20;6.23;;;11.70;99.90;;;;;;5048278;28;20452;-54
2022/03/31 11:33:05;;;;;;;12.23;7.88;;;11.60;1.00;;;;;;5049354;28;20502;-55
2022/03/31 11:35:32;;;;;;;10.55;7.30;;;11.80;99.90;;;;;;5032382;28;20941;-52
2022/03/31 11:38:01;;;;;;;11.43;7.28;;;11.70;1.00;;;;;;5045629;28;20524;-50
2022/03/31 11:40:29;;;;;;;11.85;7.40;;;11.80;1.00;;;;;;5050311;28;20853;-53
2022/03/31 11:42:57;;;;;;;9.32;6.60;;;11.90;1.00;;;;;;5048336;28;20520;-53
2022/03/31 11:45:31;;;;;;;8.18;6.22;;;11.90;1.00;;;;;;5052112;28;20741;-49
2022/03/31 11:47:59;;;;;;;10.65;8.18;;;12.00;1.00;;;;;;5051610;28;20754;-50
2022/03/31 11:50:27;;;;;;;8.52;6.40;;;12.20;99.90;;;;;;5050929;28;20520;-53
2022/03/31 11:52:55;;;;;;;11.45;8.43;;;12.20;99.90;;;;;;5051413;28;20516;-54
2022/03/31 11:55:23;;;;;;;14.85;9.55;;;12.10;99.90;;;;;;5053949;28;20436;-55
2022/03/31 11:57:54;;;;;;;26.13;17.83;;;12.00;99.90;;;;;;5051154;28;20425;-53
2022/03/31 12:00:23;;;;;;;16.40;11.00;;;12.00;1.00;;;;;;5048912;28;20828;-53
2022/03/31 12:03:03;;;;;;;9.27;6.40;;;12.20;99.90;;;;;;5050170;28;20440;-53
2022/03/31 12:05:31;;;;;;;10.02;6.85;;;12.10;99.90;;;;;;5045854;28;20475;-56
2022/03/31 12:08:00;;;;;;;10.97;6.87;;;12.10;99.90;;;;;;5046315;28;20462;-56
2022/03/31 12:10:29;;;;;;;9.73;5.75;;;11.80;99.90;;;;;;5048833;28;20508;-58
2022/03/31 12:12:57;;;;;;;11.15;6.53;;;11.70;1.00;;;;;;5051047;28;20437;-57
2022/03/31 12:15:26;;;;;;;9.75;7.30;;;11.80;1.00;;;;;;5052359;28;20453;-57
2022/03/31 12:18:03;;;;;;;9.60;6.50;;;11.80;1.00;;;;;;5051965;28;20518;-57
2022/03/31 12:20:32;;;;;;;9.82;6.40;;;11.90;24.50;;;;;;5050797;28;20788;-58
2022/03/31 12:22:59;;;;;;;9.77;6.20;;;12.30;99.90;;;;;;5049033;28;20429;-55
2022/03/31 12:25:44;;;;;;;9.90;6.80;;;12.20;81.30;;;;;;5050175;28;20930;-57
2022/03/31 12:28:11;;;;;;;9.77;6.68;;;12.10;99.90;;;;;;5048741;28;20483;-57
2022/03/31 12:30:42;;;;;;;10.13;6.22;;;11.90;99.90;;;;;;5049233;28;20844;-56
2022/03/31 12:33:22;;;;;;;9.75;6.22;;;12.00;1.00;;;;;;5050178;28;20512;-57
2022/03/31 12:36:02;;;;;;;10.40;6.50;;;12.10;99.90;;;;;;5049954;28;20496;-57
2022/03/31 12:38:40;;;;;;;9.00;6.70;;;11.90;1.00;;;;;;5050246;28;20721;-58
2022/03/31 12:41:20;;;;;;;10.57;6.75;;;11.90;1.00;;;;;;5052486;28;20528;-57
2022/03/31 12:44:02;;;;;;;8.77;5.50;;;11.90;1.00;;;;;;5052253;28;20443;-58
2022/03/31 12:46:31;;;;;;;10.73;6.60;;;11.70;1.00;;;;;;5052660;28;20465;-57
2022/03/31 12:49:04;;;;;;;10.60;6.10;;;11.50;38.60;;;;;;5052847;28;20427;-58
2022/03/31 12:51:42;;;;;;;10.50;6.47;;;11.50;99.90;;;;;;5052885;28;20421;-58
2022/03/31 12:54:26;;;;;;;9.25;6.45;;;11.40;1.00;;;;;;5051877;28;20804;-58
2022/03/31 12:56:55;;;;;;;11.55;6.40;;;11.30;78.60;;;;;;5051459;28;20432;-58
2022/03/31 12:59:25;;;;;;;9.05;6.57;;;11.10;1.00;;;;;;5052454;28;20421;-58
2022/03/31 13:01:56;;;;;;;12.67;7.03;;;11.20;1.00;;;;;;5053281;28;20748;-55
2022/03/31 13:04:25;;;;;;;10.27;7.55;;;11.30;1.00;;;;;;5052878;28;20777;-57
2022/03/31 13:06:52;;;;;;;8.57;5.78;;;11.20;1.00;;;;;;5052340;28;20439;-53
2022/03/31 13:09:19;;;;;;;8.85;6.25;;;11.30;1.00;;;;;;5053059;28;20778;-50